首页
METAR-TAF:

METAR-TAF

机场 :

格罗兹尼, 俄罗斯

纬度: 43-23-18N, 经度: 045-41-59E, 海拔: 167米

当前天气观测

该预报发布于20分钟前的21:30 UTC
静风
温度 3°C
湿度 87%
气压 1008 hPa
能见度10公里或以上
1500米以下无云,无积雨云

METAR: URMG 282130Z 00000MPS CAVOK 03/01 Q1008 R08/090070 NOSIG RMK QFE741/0988

时间: 00:50 (21:50 UTC)

预报

该预报发布于1小时和50分钟前的20:00 UTC
预报有效从28日的 21点(UTC)到 29日的 06点(UTC)
风速6节,风向,有时为16节阵风
能見度: 6000
多云层高于1600英尺
短暂存在
从 28日的 21点(UTC)到 29日的 06点(UTC)
风速2节,风向多变
能見度: 3100
多云层高于1100英尺
轻雾

TAF: URMG 282000Z 2821/2906 09003G08MPS 6000 BKN016 TEMPO 2821/2906 VRB01MPS 3100 BR BKN011

超过4000个机场的气象观测和天气预报(METAR&TAF报告)。

可查询的气象台以黄色和红色小点在地图上表示。

将鼠标移到小点上方,可查看气象台名称。

然后点击查看天气观测和预报。

如需切换地图:点击带黑十字的绿色按钮放大地图;点击带横线的绿色按钮缩小地图;或者点击绿色箭头查看邻近地区的地图。


METAR-TAF: